Florence, Vermont
Current Conditions -  °F | °C
As of 2:15 PM on Friday 28 Nov 2014 (Local Time) from KRUT Reporting Station
Broken Clouds Broken Clouds  
Wind Chill: -7°   Ceiling: 5000
Heat Index: -3°   Visibility: 10mi
Dew Point: -11°   Wind: 6mph
Humidity: 55%   Direction: 300°WNW
Pressure: 30.06"   Gusts: NA
Location:  43.72°N, 73.06°W
Report Text: KRUT 281915Z 30005KT 250V320 10SM FEW040 BKN050 M03/M11 A3006 RMK AO1
Loading
Personal Weather Stations






























Interactive Weather Map New forecast layout! Learn more

10-Day Weather Forecast

Advertisements
Track Severe Weather on mobile